createdAt,value
2023-10-30T00:00:11.277Z,15.07
2023-10-30T00:02:38.777Z,23.67
2023-10-30T00:05:05.968Z,18.55
2023-10-30T00:07:32.693Z,20.30
2023-10-30T00:09:59.593Z,13.75
2023-10-30T00:12:26.369Z,14.25
2023-10-30T00:14:53.114Z,13.90
2023-10-30T00:17:19.894Z,15.55
2023-10-30T00:19:46.721Z,15.05
2023-10-30T00:22:13.594Z,17.73
2023-10-30T00:24:40.282Z,17.92
2023-10-30T00:27:07.085Z,16.63
2023-10-30T00:29:39.738Z,16.45
2023-10-30T00:32:07.388Z,19.45
2023-10-30T00:34:34.729Z,27.95
2023-10-30T00:37:01.619Z,26.85
2023-10-30T00:39:31.684Z,27.15
2023-10-30T00:41:59.308Z,32.38
2023-10-30T00:44:26.233Z,37.75
2023-10-30T00:46:54.300Z,39.65
2023-10-30T00:49:21.416Z,28.05
2023-10-30T00:51:48.169Z,25.60
2023-10-30T00:54:14.889Z,18.70
2023-10-30T00:56:41.575Z,18.83
2023-10-30T00:59:08.451Z,15.15
2023-10-30T01:01:35.196Z,19.90
2023-10-30T01:04:02.271Z,20.55
2023-10-30T01:06:29.159Z,17.73
2023-10-30T01:08:55.877Z,19.05
2023-10-30T01:11:22.581Z,15.88
2023-10-30T01:13:49.309Z,18.27
2023-10-30T01:16:16.086Z,23.25
2023-10-30T01:18:42.920Z,24.30
2023-10-30T01:21:13.535Z,16.58
2023-10-30T01:23:40.254Z,18.25
2023-10-30T01:26:07.023Z,15.30
2023-10-30T01:28:33.696Z,21.10
2023-10-30T01:31:00.545Z,17.85
2023-10-30T01:33:27.495Z,22.63
2023-10-30T01:35:54.305Z,16.67
2023-10-30T01:38:21.010Z,19.42
2023-10-30T01:40:49.395Z,14.80
2023-10-30T01:43:16.068Z,14.25
2023-10-30T01:45:42.881Z,15.75
2023-10-30T01:48:10.480Z,15.25
2023-10-30T01:50:37.755Z,19.40
2023-10-30T01:53:04.987Z,22.25
2023-10-30T01:55:32.031Z,19.92
2023-10-30T01:57:58.817Z,19.73
2023-10-30T02:00:25.874Z,21.83
2023-10-30T02:02:54.074Z,19.73
2023-10-30T02:05:21.615Z,20.23
2023-10-30T02:07:48.328Z,18.50
2023-10-30T02:10:15.132Z,13.32
2023-10-30T02:12:49.342Z,15.15
2023-10-30T02:15:16.065Z,13.10
2023-10-30T02:17:42.761Z,15.90
2023-10-30T02:20:10.065Z,14.15
2023-10-30T02:22:36.810Z,16.13
2023-10-30T02:25:05.420Z,18.92
2023-10-30T02:27:32.203Z,12.55
2023-10-30T02:29:59.282Z,11.40
2023-10-30T02:32:26.153Z,16.15
2023-10-30T02:34:52.858Z,15.15
2023-10-30T02:37:19.543Z,16.40
2023-10-30T02:39:46.354Z,15.40
2023-10-30T02:42:14.015Z,14.65
2023-10-30T02:44:40.730Z,16.58
2023-10-30T02:47:07.391Z,16.00
2023-10-30T02:49:34.500Z,19.90
2023-10-30T02:52:01.145Z,17.67
2023-10-30T02:54:28.263Z,17.85
2023-10-30T02:56:54.977Z,19.75
2023-10-30T02:59:21.674Z,17.77
2023-10-30T03:01:48.368Z,23.17
2023-10-30T03:04:17.744Z,18.17
2023-10-30T03:06:44.779Z,15.35
2023-10-30T03:09:11.570Z,18.23
2023-10-30T03:11:38.317Z,22.15
2023-10-30T03:14:05.532Z,21.77
2023-10-30T03:16:32.254Z,22.58
2023-10-30T03:18:59.136Z,19.08
2023-10-30T03:21:26.161Z,19.38
2023-10-30T03:23:52.951Z,21.38
2023-10-30T03:26:19.672Z,25.67
2023-10-30T03:28:46.533Z,15.95
2023-10-30T03:31:13.543Z,18.05
2023-10-30T03:33:40.339Z,19.50
2023-10-30T03:36:07.255Z,20.20
2023-10-30T03:38:34.116Z,18.00
2023-10-30T03:41:01.386Z,17.65
2023-10-30T03:43:28.204Z,17.80
2023-10-30T03:45:54.924Z,21.65
2023-10-30T03:48:21.648Z,19.90
2023-10-30T03:50:52.044Z,15.98
2023-10-30T03:53:18.768Z,18.48
2023-10-30T03:55:45.447Z,18.23
2023-10-30T03:58:12.221Z,18.65
2023-10-30T04:00:38.974Z,19.15
2023-10-30T04:03:05.789Z,19.48
2023-10-30T04:05:32.483Z,23.63
2023-10-30T04:07:59.197Z,22.50
2023-10-30T04:10:26.108Z,31.27
2023-10-30T04:12:52.836Z,21.58
2023-10-30T04:15:19.793Z,24.08
2023-10-30T04:17:46.681Z,22.42
2023-10-30T04:20:13.666Z,27.95
2023-10-30T04:22:40.346Z,18.27
2023-10-30T04:25:08.526Z,19.48
2023-10-30T04:27:35.636Z,25.95
2023-10-30T04:30:03.642Z,23.88
2023-10-30T04:32:30.343Z,25.13
2023-10-30T04:34:57.058Z,22.90
2023-10-30T04:37:24.032Z,37.60
2023-10-30T04:39:51.097Z,20.33
2023-10-30T04:42:18.074Z,27.05
2023-10-30T04:44:44.804Z,24.20
2023-10-30T04:47:11.567Z,30.73
2023-10-30T04:49:39.384Z,30.02
2023-10-30T04:52:06.369Z,29.67
2023-10-30T04:54:33.150Z,20.50
2023-10-30T04:56:59.990Z,24.65
2023-10-30T04:59:26.696Z,26.92
2023-10-30T05:01:53.439Z,23.75
2023-10-30T05:04:20.253Z,19.73
2023-10-30T05:06:47.943Z,21.20
2023-10-30T05:09:14.823Z,24.33
2023-10-30T05:11:41.537Z,25.63
2023-10-30T05:14:08.845Z,25.05
2023-10-30T05:16:36.683Z,28.95
2023-10-30T05:19:03.877Z,23.55
2023-10-30T05:21:30.584Z,22.77
2023-10-30T05:23:57.423Z,23.10
2023-10-30T05:26:24.320Z,27.27
2023-10-30T05:28:50.995Z,29.48
2023-10-30T05:31:17.878Z,32.00
2023-10-30T05:33:44.736Z,45.35
2023-10-30T05:36:11.532Z,39.85
2023-10-30T05:38:38.328Z,51.83
2023-10-30T05:41:05.099Z,42.17
2023-10-30T05:43:31.781Z,41.50
2023-10-30T05:45:58.570Z,34.53
2023-10-30T05:48:25.652Z,31.27
2023-10-30T05:50:52.349Z,32.30
2023-10-30T05:53:19.020Z,34.47
2023-10-30T05:55:45.800Z,42.80
2023-10-30T05:58:13.637Z,40.50
2023-10-30T06:00:40.433Z,29.92
2023-10-30T06:03:10.786Z,38.53
2023-10-30T06:05:37.617Z,32.83
2023-10-30T06:08:04.508Z,30.42
2023-10-30T06:10:31.219Z,29.15
2023-10-30T06:12:58.003Z,42.90
2023-10-30T06:15:24.708Z,40.78
2023-10-30T06:17:51.537Z,36.42
2023-10-30T06:20:18.326Z,35.47
2023-10-30T06:22:45.025Z,35.33
2023-10-30T06:25:11.720Z,50.70
2023-10-30T06:27:41.400Z,48.25
2023-10-30T06:30:09.579Z,52.85
2023-10-30T06:32:36.686Z,56.15
2023-10-30T06:35:03.959Z,51.33
2023-10-30T06:37:30.807Z,57.08
2023-10-30T06:39:57.558Z,54.70
2023-10-30T06:42:24.340Z,54.85
2023-10-30T06:44:51.548Z,43.33
2023-10-30T06:47:18.892Z,50.75
2023-10-30T06:49:48.090Z,47.13
2023-10-30T06:52:14.801Z,43.97
2023-10-30T06:54:41.567Z,48.15
2023-10-30T06:57:08.418Z,46.42
2023-10-30T06:59:35.171Z,46.08
2023-10-30T07:02:02.055Z,45.40
2023-10-30T07:04:28.814Z,45.17
2023-10-30T07:06:55.605Z,47.95
2023-10-30T07:09:22.350Z,62.10
2023-10-30T07:11:49.154Z,51.15
2023-10-30T07:14:15.818Z,52.75
2023-10-30T07:16:56.915Z,57.45
2023-10-30T07:19:24.655Z,65.40
2023-10-30T07:21:52.934Z,57.63
2023-10-30T07:24:19.697Z,52.33
2023-10-30T07:26:47.591Z,46.88
2023-10-30T07:29:14.298Z,55.30
2023-10-30T07:31:40.995Z,59.03
2023-10-30T07:34:07.739Z,53.80
2023-10-30T07:36:34.790Z,50.88
2023-10-30T07:39:01.508Z,50.70
2023-10-30T07:41:28.244Z,51.55
2023-10-30T07:43:55.933Z,45.67
2023-10-30T07:46:22.700Z,45.08
2023-10-30T07:48:49.536Z,50.85
2023-10-30T07:51:16.297Z,44.97
2023-10-30T07:53:43.842Z,47.72
2023-10-30T07:56:11.744Z,47.38
2023-10-30T07:58:38.533Z,41.10
2023-10-30T08:01:05.315Z,27.92
2023-10-30T08:03:33.167Z,16.98
2023-10-30T08:06:00.905Z,33.53
2023-10-30T08:08:29.998Z,25.10
2023-10-30T08:10:57.239Z,16.90
2023-10-30T08:13:24.044Z,19.30
2023-10-30T08:15:50.803Z,15.98
2023-10-30T08:18:17.580Z,10.40
2023-10-30T08:20:44.419Z,8.57
2023-10-30T08:23:12.377Z,12.18
2023-10-30T08:25:39.129Z,13.77
2023-10-30T08:28:05.812Z,7.35
2023-10-30T08:30:32.562Z,10.00
2023-10-30T08:32:59.382Z,7.80
2023-10-30T08:35:26.155Z,12.63
2023-10-30T08:37:54.047Z,10.73
2023-10-30T08:40:20.831Z,9.98
2023-10-30T08:42:48.286Z,13.27
2023-10-30T08:45:15.036Z,11.65
2023-10-30T08:48:12.179Z,7.75
2023-10-30T08:50:44.452Z,7.63
2023-10-30T08:53:11.219Z,8.02
2023-10-30T08:55:37.961Z,8.57
2023-10-30T08:58:04.689Z,8.60
2023-10-30T09:00:31.483Z,9.15
2023-10-30T09:02:58.281Z,9.43
2023-10-30T09:05:25.411Z,9.05
2023-10-30T09:07:53.025Z,10.35
2023-10-30T09:10:19.776Z,9.90
2023-10-30T09:12:46.610Z,10.20
2023-10-30T09:15:15.663Z,9.48
2023-10-30T09:17:42.431Z,7.65
2023-10-30T09:20:13.448Z,8.80
2023-10-30T09:22:40.295Z,8.63
2023-10-30T09:25:07.755Z,10.57
2023-10-30T09:27:35.045Z,9.43
2023-10-30T09:30:02.269Z,8.00
2023-10-30T09:32:29.021Z,6.85
2023-10-30T09:34:57.151Z,7.57
2023-10-30T09:37:23.857Z,8.85
2023-10-30T09:39:51.523Z,9.38
2023-10-30T09:42:18.400Z,7.95
2023-10-30T09:44:45.726Z,8.32
2023-10-30T09:47:12.552Z,8.13
2023-10-30T09:49:39.519Z,8.75
2023-10-30T09:52:07.050Z,11.07
2023-10-30T09:54:33.907Z,8.48
2023-10-30T09:57:02.250Z,9.38
2023-10-30T09:59:29.041Z,8.02
2023-10-30T10:01:55.981Z,7.97
2023-10-30T10:04:22.883Z,8.20
2023-10-30T10:06:52.264Z,8.98
2023-10-30T10:09:18.965Z,8.25
2023-10-30T10:11:45.901Z,7.65
2023-10-30T10:14:12.944Z,11.57
2023-10-30T10:16:39.939Z,7.00
2023-10-30T10:19:23.595Z,13.55
2023-10-30T10:21:51.514Z,11.10
2023-10-30T10:24:48.186Z,8.68
2023-10-30T10:27:15.240Z,9.07
2023-10-30T10:29:41.955Z,10.13
2023-10-30T10:32:08.735Z,9.63
2023-10-30T10:34:35.628Z,9.55
2023-10-30T10:37:03.721Z,7.35
2023-10-30T10:39:54.679Z,9.98
2023-10-30T10:42:23.416Z,9.40
2023-10-30T10:44:52.777Z,11.40
2023-10-30T10:47:20.690Z,9.25
2023-10-30T10:49:48.132Z,8.65
2023-10-30T10:52:16.950Z,9.52
2023-10-30T10:55:00.922Z,7.05
2023-10-30T10:57:29.410Z,10.05
2023-10-30T11:00:01.666Z,10.60
2023-10-30T11:02:32.438Z,7.80
2023-10-30T11:05:00.111Z,15.60
2023-10-30T11:07:53.717Z,10.05
2023-10-30T11:10:34.339Z,11.98
2023-10-30T11:13:11.865Z,8.82
2023-10-30T11:15:49.228Z,10.82
2023-10-30T11:18:16.691Z,9.13
2023-10-30T11:20:44.055Z,10.60
2023-10-30T11:23:11.085Z,10.30
2023-10-30T11:25:37.718Z,8.90
2023-10-30T11:28:04.696Z,12.18
2023-10-30T11:30:42.401Z,10.07
2023-10-30T11:33:28.892Z,11.35
2023-10-30T11:36:20.588Z,8.52
2023-10-30T11:38:53.724Z,8.25
2023-10-30T11:41:25.235Z,11.40
2023-10-30T11:43:52.650Z,14.55
2023-10-30T11:46:19.582Z,8.23
2023-10-30T11:48:46.701Z,8.88
2023-10-30T11:51:16.083Z,8.80
2023-10-30T11:53:43.901Z,10.00
2023-10-30T11:56:11.402Z,9.73
2023-10-30T11:58:38.166Z,9.50
2023-10-30T12:01:07.023Z,8.30
2023-10-30T12:03:34.049Z,8.65
2023-10-30T12:06:00.762Z,11.20
2023-10-30T12:08:27.441Z,10.15
2023-10-30T12:10:54.176Z,13.18
2023-10-30T12:13:20.927Z,9.85
2023-10-30T12:15:47.694Z,11.25
2023-10-30T12:18:14.428Z,9.07
2023-10-30T12:20:41.172Z,9.93
2023-10-30T12:23:09.941Z,9.45
2023-10-30T12:28:04.992Z,10.43
2023-10-30T12:30:36.217Z,9.52
2023-10-30T12:33:03.912Z,8.77
2023-10-30T12:35:30.929Z,10.65
2023-10-30T12:40:45.104Z,11.70
2023-10-30T12:43:12.016Z,10.38
2023-10-30T12:45:39.241Z,8.45
2023-10-30T12:48:06.444Z,10.02
2023-10-30T12:50:33.199Z,10.20
2023-10-30T12:52:59.931Z,9.63
2023-10-30T12:55:26.625Z,8.98
2023-10-30T12:57:54.291Z,10.95
2023-10-30T13:00:21.060Z,20.42
2023-10-30T13:02:47.949Z,9.18
2023-10-30T13:05:14.881Z,9.43
2023-10-30T13:07:43.680Z,9.50
2023-10-30T13:10:10.561Z,9.70
2023-10-30T13:12:37.283Z,14.63
2023-10-30T13:15:05.459Z,12.18
2023-10-30T13:17:32.158Z,9.30
2023-10-30T13:19:58.928Z,8.43
2023-10-30T13:22:25.631Z,10.82
2023-10-30T13:24:52.542Z,11.98
2023-10-30T13:27:19.590Z,14.50
2023-10-30T13:29:46.285Z,10.10
2023-10-30T13:32:12.995Z,11.00
2023-10-30T13:34:39.788Z,11.25
2023-10-30T13:37:06.550Z,15.25
2023-10-30T13:39:33.441Z,13.27
2023-10-30T13:42:00.220Z,9.23
2023-10-30T13:44:26.932Z,10.05
2023-10-30T13:46:53.757Z,10.63
2023-10-30T13:49:20.542Z,10.23
2023-10-30T13:51:47.439Z,11.43
2023-10-30T13:54:14.386Z,10.45
2023-10-30T13:56:41.086Z,11.02
2023-10-30T13:59:08.188Z,8.57
2023-10-30T14:01:34.985Z,21.35
2023-10-30T14:04:02.796Z,12.02
2023-10-30T14:06:30.149Z,10.68
2023-10-30T14:08:57.010Z,10.43
2023-10-30T14:11:25.303Z,12.23
2023-10-30T14:13:53.724Z,16.05
2023-10-30T14:16:20.768Z,11.52
2023-10-30T14:18:47.574Z,14.77
2023-10-30T14:21:16.470Z,15.07
2023-10-30T14:26:09.853Z,10.77
2023-10-30T14:28:36.607Z,10.32
2023-10-30T14:31:03.514Z,12.40
2023-10-30T14:33:30.333Z,18.83
2023-10-30T14:35:57.053Z,14.85
2023-10-30T14:38:23.788Z,12.38
2023-10-30T14:40:50.523Z,11.02
2023-10-30T14:43:17.307Z,11.07
2023-10-30T14:45:44.115Z,19.00
2023-10-30T14:48:10.866Z,11.93
2023-10-30T14:50:38.763Z,19.20
2023-10-30T14:53:05.804Z,11.68
2023-10-30T14:55:32.493Z,10.48
2023-10-30T14:57:59.354Z,11.88
2023-10-30T15:00:26.161Z,13.80
2023-10-30T15:02:52.915Z,14.30
2023-10-30T15:05:19.793Z,13.10
2023-10-30T15:07:46.531Z,12.70
2023-10-30T15:10:13.241Z,12.32
2023-10-30T15:12:40.818Z,13.70
2023-10-30T15:15:08.145Z,12.98
2023-10-30T15:17:36.904Z,15.80
2023-10-30T15:22:31.255Z,20.25
2023-10-30T15:24:58.039Z,13.15
2023-10-30T15:27:27.228Z,12.20
2023-10-30T15:29:54.105Z,11.60
2023-10-30T15:32:20.820Z,12.63
2023-10-30T15:34:48.313Z,14.50
2023-10-30T15:37:15.407Z,16.10
2023-10-30T15:39:42.614Z,15.88
2023-10-30T15:42:09.423Z,11.63
2023-10-30T15:44:36.177Z,24.67
2023-10-30T15:47:14.344Z,22.27
2023-10-30T15:49:45.434Z,10.73
2023-10-30T15:59:47.190Z,10.23
2023-10-30T16:02:14.098Z,12.90
2023-10-30T16:04:43.711Z,12.55
2023-10-30T16:07:27.846Z,16.92
2023-10-30T16:10:11.874Z,14.63
2023-10-30T16:12:41.385Z,13.88
2023-10-30T16:15:10.874Z,12.05
2023-10-30T16:17:38.460Z,15.07
2023-10-30T16:22:36.612Z,15.77
2023-10-30T16:25:03.984Z,16.27
2023-10-30T16:27:30.762Z,23.08
2023-10-30T16:29:58.234Z,17.92
2023-10-30T16:32:25.064Z,16.25
2023-10-30T16:34:51.832Z,20.90
2023-10-30T16:37:18.595Z,29.70
2023-10-30T16:39:45.290Z,22.33
2023-10-30T16:42:11.987Z,20.40
2023-10-30T16:44:39.517Z,22.52
2023-10-30T16:47:06.628Z,35.58
2023-10-30T16:49:33.401Z,20.25
2023-10-30T16:52:00.156Z,26.50
2023-10-30T16:54:26.811Z,28.10
2023-10-30T16:56:53.539Z,25.35
2023-10-30T16:59:20.322Z,25.83
2023-10-30T17:01:47.180Z,19.10
2023-10-30T17:04:13.982Z,28.80
2023-10-30T17:06:40.655Z,21.73
2023-10-30T17:09:07.341Z,20.17
2023-10-30T17:11:34.022Z,34.40
2023-10-30T17:14:00.741Z,26.95
2023-10-30T17:16:27.554Z,27.85
2023-10-30T17:18:54.310Z,25.80
2023-10-30T17:21:21.658Z,32.30
2023-10-30T17:23:48.395Z,19.80
2023-10-30T17:26:15.109Z,16.60
2023-10-30T17:28:41.942Z,21.42
2023-10-30T17:31:08.800Z,24.42
2023-10-30T17:33:36.252Z,28.58
2023-10-30T17:36:03.064Z,21.98
2023-10-30T17:38:29.819Z,20.27
2023-10-30T17:40:56.584Z,20.33
2023-10-30T17:43:23.455Z,19.48
2023-10-30T17:45:50.694Z,20.65
2023-10-30T17:48:17.501Z,30.83
2023-10-30T17:50:44.214Z,18.42
2023-10-30T17:53:10.949Z,22.55
2023-10-30T17:55:37.770Z,27.20
2023-10-30T17:58:05.121Z,23.27
2023-10-30T18:00:31.820Z,23.95
2023-10-30T18:02:58.567Z,22.88
2023-10-30T18:05:25.425Z,21.48
2023-10-30T18:07:52.213Z,27.92
2023-10-30T18:10:19.148Z,24.55
2023-10-30T18:12:45.906Z,17.70
2023-10-30T18:15:12.598Z,13.73
2023-10-30T18:17:39.340Z,26.65
2023-10-30T18:20:06.641Z,19.58
2023-10-30T18:22:33.364Z,27.33
2023-10-30T18:25:00.075Z,21.58
2023-10-30T18:27:26.808Z,17.63
2023-10-30T18:29:54.868Z,32.60
2023-10-30T18:32:21.641Z,28.23
2023-10-30T18:34:48.389Z,29.08
2023-10-30T18:37:15.146Z,22.08
2023-10-30T18:39:41.880Z,23.15
2023-10-30T18:42:08.588Z,21.65
2023-10-30T18:44:35.487Z,34.70
2023-10-30T18:47:02.346Z,23.00
2023-10-30T18:49:29.208Z,32.00
2023-10-30T18:51:57.545Z,21.02
2023-10-30T18:54:24.373Z,23.65
2023-10-30T18:56:51.271Z,28.35
2023-10-30T18:59:18.032Z,22.73
2023-10-30T19:01:44.734Z,19.20
2023-10-30T19:04:13.089Z,24.38
2023-10-30T19:06:39.836Z,26.65
2023-10-30T19:09:09.154Z,15.25
2023-10-30T19:11:37.539Z,22.33
2023-10-30T19:14:06.761Z,21.55
2023-10-30T19:16:34.080Z,24.15
2023-10-30T19:19:00.802Z,22.05
2023-10-30T19:21:27.652Z,25.65
2023-10-30T19:23:54.343Z,33.60
2023-10-30T19:26:21.046Z,23.58
2023-10-30T19:28:49.007Z,24.02
2023-10-30T19:31:15.910Z,26.58
2023-10-30T19:33:43.602Z,22.90
2023-10-30T19:36:10.456Z,24.23
2023-10-30T19:38:37.401Z,20.15
2023-10-30T19:41:04.440Z,22.23
2023-10-30T19:43:31.286Z,18.25
2023-10-30T19:45:58.078Z,20.48
2023-10-30T19:48:26.156Z,17.58
2023-10-30T19:50:53.685Z,19.17
2023-10-30T19:53:20.355Z,16.60
2023-10-30T19:55:47.180Z,17.95
2023-10-30T19:58:13.950Z,18.92
2023-10-30T20:00:40.753Z,18.85
2023-10-30T20:03:07.567Z,19.50
2023-10-30T20:05:34.320Z,27.77
2023-10-30T20:08:01.211Z,20.77
2023-10-30T20:10:37.170Z,21.50
2023-10-30T20:13:05.487Z,15.70
2023-10-30T20:15:32.369Z,13.45
2023-10-30T20:17:59.175Z,19.27
2023-10-30T20:20:26.628Z,18.05
2023-10-30T20:22:53.497Z,18.58
2023-10-30T20:25:26.444Z,21.50
2023-10-30T20:27:53.189Z,26.65
2023-10-30T20:30:21.187Z,56.60
2023-10-30T20:32:47.921Z,70.20
2023-10-30T20:35:16.705Z,72.15
2023-10-30T20:37:45.145Z,77.72
2023-10-30T20:40:12.400Z,81.15
2023-10-30T20:42:39.118Z,63.42
2023-10-30T20:45:06.382Z,56.55
2023-10-30T20:47:34.000Z,40.28
2023-10-30T20:50:00.903Z,39.25
2023-10-30T20:52:27.752Z,39.22
2023-10-30T20:54:54.512Z,36.60
2023-10-30T20:57:21.224Z,40.42
2023-10-30T20:59:48.152Z,38.40
2023-10-30T21:02:15.175Z,43.50
2023-10-30T21:04:42.017Z,45.95
2023-10-30T21:07:08.793Z,49.78
2023-10-30T21:09:37.326Z,45.90
2023-10-30T21:12:04.553Z,48.88
2023-10-30T21:14:31.319Z,52.28
2023-10-30T21:16:59.833Z,44.70
2023-10-30T21:19:26.752Z,48.38
2023-10-30T21:21:53.505Z,52.97
2023-10-30T21:24:20.198Z,44.95
2023-10-30T21:26:46.913Z,45.50
2023-10-30T21:29:14.975Z,48.53
2023-10-30T21:31:42.974Z,42.30
2023-10-30T21:34:09.745Z,43.95
2023-10-30T21:36:36.546Z,42.75
2023-10-30T21:39:04.085Z,40.60
2023-10-30T21:41:30.816Z,40.60
2023-10-30T21:44:00.513Z,33.55
2023-10-30T21:46:31.038Z,35.42
2023-10-30T21:48:58.276Z,36.13
2023-10-30T21:51:25.303Z,32.30
2023-10-30T21:53:53.973Z,35.83
2023-10-30T21:56:21.636Z,46.38
2023-10-30T21:58:48.788Z,28.85
2023-10-30T22:01:16.455Z,31.13
2023-10-30T22:03:43.407Z,30.98
2023-10-30T22:06:10.144Z,36.03
2023-10-30T22:08:36.823Z,36.17
2023-10-30T22:11:03.758Z,34.00
2023-10-30T22:13:30.536Z,41.03
2023-10-30T22:15:57.393Z,45.38
2023-10-30T22:18:24.167Z,36.80
2023-10-30T22:20:51.849Z,44.70
2023-10-30T22:23:18.950Z,39.67
2023-10-30T22:25:45.731Z,37.80
2023-10-30T22:28:12.498Z,42.63
2023-10-30T22:30:39.213Z,45.70
2023-10-30T22:33:05.908Z,45.63
2023-10-30T22:35:32.745Z,45.95
2023-10-30T22:37:59.460Z,48.45
2023-10-30T22:40:26.244Z,46.25
2023-10-30T22:42:52.955Z,47.55
2023-10-30T22:45:19.730Z,47.53
2023-10-30T22:47:46.444Z,40.90
2023-10-30T22:50:13.310Z,50.20
2023-10-30T22:52:40.119Z,42.35
2023-10-30T22:55:07.668Z,51.95
2023-10-30T22:57:34.653Z,43.65
2023-10-30T23:00:01.368Z,44.92
2023-10-30T23:02:28.152Z,44.30
2023-10-30T23:04:54.877Z,44.28
2023-10-30T23:07:21.654Z,54.90
2023-10-30T23:09:48.339Z,56.53
2023-10-30T23:12:15.045Z,56.17
2023-10-30T23:14:41.765Z,50.60
2023-10-30T23:17:08.507Z,48.33
2023-10-30T23:19:35.521Z,53.45
2023-10-30T23:22:02.425Z,47.92
2023-10-30T23:24:29.157Z,55.10
2023-10-30T23:26:55.882Z,65.28
2023-10-30T23:29:22.719Z,55.55
2023-10-30T23:31:49.443Z,52.67
2023-10-30T23:34:16.212Z,49.72
2023-10-30T23:36:42.918Z,45.13
2023-10-30T23:39:09.617Z,43.97
2023-10-30T23:41:36.407Z,46.33
2023-10-30T23:44:03.232Z,46.17
2023-10-30T23:46:35.769Z,57.03
2023-10-30T23:49:07.708Z,47.75
2023-10-30T23:51:34.420Z,46.45
2023-10-30T23:54:01.212Z,46.35
2023-10-30T23:56:27.913Z,54.35
2023-10-30T23:58:54.628Z,50.92
